GMMX/RAK METAR and TAF weather

Enter ICAO airport designator
Station Type Date Time Source
GMMX METAR 2019/08/19 23:30 UTC NOAA

GMMX 192330Z VRB02KT CAVOK 26/13 Q1018 NOSIG


Station Type Date Time Source
GMMX Decoded METAR 2019/08/19 23:30 UTC NOAA

Marrakech, Morocco (GMMX) 31-37N 008-02W 466M
Aug 19, 2019 - 07:30 PM EDT / 2019.08.19 2330 UTC
Wind: Variable at 2 MPH (2 KT):0
Visibility: greater than 7 mile(s):0
Temperature: 78 F (26 C)
Dew Point: 55 F (13 C)
Relative Humidity: 44%
Pressure (altimeter): 30.06 in. Hg (1018 hPa)
ob: GMMX 192330Z VRB02KT CAVOK 26/13 Q1018 NOSIG
cycle: 23

Station Type Date Time Source
GMMX TAF 2019/08/19 18:48 UTC NOAA

TAF COR TAF COR GMMX 181700Z 1818/1924 04006KT 8000 NSC
TEMPO 1818/1822 34016KT SCT100

Example: see airport list